createdAt,value
2023-03-26T00:00:04.797Z,20.8994
2023-03-26T00:01:06.431Z,20.9147
2023-03-26T00:02:08.255Z,20.9317
2023-03-26T00:03:09.703Z,20.9458
2023-03-26T00:04:11.468Z,20.9556
2023-03-26T00:05:13.102Z,20.9551
2023-03-26T00:06:14.664Z,20.9582
2023-03-26T00:07:16.403Z,20.9653
2023-03-26T00:08:18.068Z,20.9689
2023-03-26T00:09:19.578Z,20.9641
2023-03-26T00:10:21.365Z,20.9698
2023-03-26T00:11:22.937Z,20.9804
2023-03-26T00:12:24.584Z,20.9862
2023-03-26T00:13:26.231Z,20.9895
2023-03-26T00:14:27.862Z,21.0001
2023-03-26T00:15:29.484Z,21.0053
2023-03-26T00:16:31.197Z,21.0048
2023-03-26T00:17:32.830Z,21.0030
2023-03-26T00:18:34.504Z,21.0090
2023-03-26T00:19:36.090Z,21.0052
2023-03-26T00:20:37.740Z,20.9954
2023-03-26T00:21:39.394Z,20.9936
2023-03-26T00:22:41.109Z,21.0017
2023-03-26T00:23:42.671Z,21.0060
2023-03-26T00:24:44.339Z,21.0115
2023-03-26T00:25:46.771Z,21.0107
2023-03-26T00:26:47.648Z,21.0135
2023-03-26T00:27:49.294Z,21.0145
2023-03-26T00:28:50.953Z,21.0234
2023-03-26T00:29:52.563Z,21.0255
2023-03-26T00:30:54.279Z,21.0176
2023-03-26T00:31:55.871Z,21.0166
2023-03-26T00:32:57.570Z,21.0250
2023-03-26T00:33:59.161Z,21.0305
2023-03-26T00:35:00.845Z,21.0281
2023-03-26T00:36:04.397Z,21.0299
2023-03-26T00:37:04.125Z,21.0312
2023-03-26T00:38:05.776Z,21.0413
2023-03-26T00:39:07.417Z,21.0471
2023-03-26T00:40:09.040Z,21.0504
2023-03-26T00:41:10.712Z,21.0470
2023-03-26T00:42:12.342Z,21.0546
2023-03-26T00:43:14.019Z,21.0607
2023-03-26T00:44:15.643Z,21.0650
2023-03-26T00:45:17.304Z,21.0682
2023-03-26T00:46:18.998Z,21.0800
2023-03-26T00:47:20.761Z,21.0719
2023-03-26T00:48:28.846Z,21.0692
2023-03-26T00:49:23.890Z,21.0750
2023-03-26T00:50:25.529Z,21.0813
2023-03-26T00:51:27.218Z,21.0884
2023-03-26T00:52:28.833Z,21.0924
2023-03-26T00:53:30.667Z,21.0891
2023-03-26T00:54:32.142Z,21.0812
2023-03-26T00:55:33.805Z,21.0761
2023-03-26T00:56:35.476Z,21.0820
2023-03-26T00:57:37.185Z,21.0939
2023-03-26T00:58:38.751Z,21.0967
2023-03-26T00:59:40.403Z,21.0935
2023-03-26T01:00:42.034Z,21.0984
2023-03-26T01:01:43.726Z,21.1101
2023-03-26T01:02:45.435Z,21.1089
2023-03-26T01:04:04.830Z,21.1063
2023-03-26T01:04:48.759Z,21.1190
2023-03-26T01:05:50.303Z,21.1249
2023-03-26T01:06:51.916Z,21.1325
2023-03-26T01:07:53.590Z,21.1438
2023-03-26T01:08:55.251Z,21.1523
2023-03-26T01:09:56.871Z,21.1543
2023-03-26T01:10:58.514Z,21.1514
2023-03-26T01:12:00.181Z,21.1532
2023-03-26T01:13:01.812Z,21.1497
2023-03-26T01:14:03.502Z,21.1530
2023-03-26T01:15:05.124Z,21.1524
2023-03-26T01:16:06.822Z,21.1595
2023-03-26T01:17:08.405Z,21.1604
2023-03-26T01:18:10.092Z,21.1575
2023-03-26T01:19:11.721Z,21.1633
2023-03-26T01:20:13.376Z,21.1725
2023-03-26T01:21:15.000Z,21.1806
2023-03-26T01:22:16.687Z,21.1795
2023-03-26T01:23:18.326Z,21.1854
2023-03-26T01:24:20.001Z,21.1837
2023-03-26T01:25:21.604Z,21.1832
2023-03-26T01:26:23.261Z,21.1892
2023-03-26T01:27:24.902Z,21.1814
2023-03-26T01:28:26.573Z,21.1838
2023-03-26T01:29:28.242Z,21.1862
2023-03-26T01:30:29.869Z,21.1816
2023-03-26T01:31:31.483Z,21.1945
2023-03-26T01:32:33.321Z,21.2032
2023-03-26T01:33:34.855Z,21.2078
2023-03-26T01:34:36.502Z,21.2107
2023-03-26T01:35:38.118Z,21.2111
2023-03-26T01:36:39.765Z,21.2194
2023-03-26T01:37:41.381Z,21.2242
2023-03-26T01:38:43.060Z,21.2192
2023-03-26T01:39:44.713Z,21.2255
2023-03-26T01:40:46.351Z,21.2259
2023-03-26T01:41:47.986Z,21.2260
2023-03-26T01:42:49.661Z,21.2299
2023-03-26T01:43:51.289Z,21.2258
2023-03-26T01:44:52.978Z,21.2291
2023-03-26T01:45:54.738Z,21.2428
2023-03-26T01:46:56.339Z,21.2361
2023-03-26T01:47:57.905Z,21.2342
2023-03-26T01:48:59.532Z,21.2307
2023-03-26T01:50:01.207Z,21.2386
2023-03-26T01:51:02.838Z,21.2360
2023-03-26T01:52:04.470Z,21.2414
2023-03-26T01:53:06.143Z,21.2491
2023-03-26T01:54:07.840Z,21.2547
2023-03-26T01:55:09.533Z,21.2652
2023-03-26T01:56:11.172Z,21.2616
2023-03-26T01:57:12.822Z,21.2517
2023-03-26T01:58:14.439Z,21.2499
2023-03-26T01:59:16.117Z,21.2558
2023-03-26T02:00:17.777Z,21.2617
2023-03-26T02:01:19.481Z,21.2654
2023-03-26T02:02:21.173Z,21.2707
2023-03-26T02:03:22.854Z,21.2777
2023-03-26T02:04:24.362Z,21.2807
2023-03-26T02:05:26.063Z,21.2710
2023-03-26T02:06:27.652Z,21.2674
2023-03-26T02:07:29.328Z,21.2718
2023-03-26T02:08:30.963Z,21.2642
2023-03-26T02:09:32.614Z,21.2754
2023-03-26T02:10:34.270Z,21.2883
2023-03-26T02:11:36.224Z,21.2950
2023-03-26T02:12:37.544Z,21.2883
2023-03-26T02:13:39.217Z,21.2734
2023-03-26T02:14:40.862Z,21.2691
2023-03-26T02:15:42.541Z,21.2746
2023-03-26T02:16:44.166Z,21.2832
2023-03-26T02:17:45.827Z,21.2971
2023-03-26T02:18:47.498Z,21.2908
2023-03-26T02:19:49.125Z,21.2848
2023-03-26T02:20:50.773Z,21.2926
2023-03-26T02:21:52.408Z,21.3060
2023-03-26T02:22:54.043Z,21.3129
2023-03-26T02:23:55.715Z,21.3072
2023-03-26T02:24:57.349Z,21.3105
2023-03-26T02:25:59.043Z,21.3090
2023-03-26T02:27:00.642Z,21.3222
2023-03-26T02:28:02.304Z,21.3285
2023-03-26T02:29:03.941Z,21.3242
2023-03-26T02:30:05.606Z,21.3237
2023-03-26T02:31:07.274Z,21.3301
2023-03-26T02:32:08.909Z,21.3311
2023-03-26T02:33:10.591Z,21.3407
2023-03-26T02:34:12.220Z,21.3331
2023-03-26T02:35:13.894Z,21.3294
2023-03-26T02:36:15.601Z,21.3364
2023-03-26T02:37:17.145Z,21.3461
2023-03-26T02:38:18.775Z,21.3509
2023-03-26T02:39:20.445Z,21.3567
2023-03-26T02:40:22.096Z,21.3602
2023-03-26T02:41:23.749Z,21.3624
2023-03-26T02:42:25.385Z,21.3494
2023-03-26T02:43:27.019Z,21.3133
2023-03-26T02:44:28.680Z,21.2756
2023-03-26T02:45:30.315Z,21.2476
2023-03-26T02:46:32.054Z,21.2112
2023-03-26T02:47:33.692Z,21.1901
2023-03-26T02:48:35.271Z,21.1879
2023-03-26T02:49:36.899Z,21.1928
2023-03-26T02:50:38.578Z,21.1971
2023-03-26T02:51:40.210Z,21.1973
2023-03-26T02:52:41.871Z,21.1956
2023-03-26T02:53:43.496Z,21.1998
2023-03-26T02:54:45.154Z,21.2066
2023-03-26T02:55:46.792Z,21.2221
2023-03-26T02:56:48.505Z,21.2355
2023-03-26T02:57:50.096Z,21.2817
2023-03-26T02:58:51.757Z,21.3067
2023-03-26T02:59:53.391Z,21.3303
2023-03-26T03:00:55.143Z,21.3359
2023-03-26T03:01:56.759Z,21.3415
2023-03-26T03:02:58.443Z,21.3569
2023-03-26T03:03:59.984Z,21.3665
2023-03-26T03:05:01.765Z,21.3697
2023-03-26T03:06:03.269Z,21.3825
2023-03-26T03:07:05.069Z,21.3891
2023-03-26T03:08:06.643Z,21.3972
2023-03-26T03:09:08.284Z,21.4095
2023-03-26T03:10:09.973Z,21.4168
2023-03-26T03:11:11.592Z,21.4312
2023-03-26T03:12:13.299Z,21.4243
2023-03-26T03:13:14.941Z,21.3939
2023-03-26T03:14:16.511Z,21.3863
2023-03-26T03:15:18.247Z,21.3785
2023-03-26T03:16:19.921Z,21.3668
2023-03-26T03:17:21.559Z,21.3752
2023-03-26T03:18:23.194Z,21.4085
2023-03-26T03:19:24.745Z,21.4336
2023-03-26T03:20:26.363Z,21.4532
2023-03-26T03:21:28.037Z,21.4693
2023-03-26T03:22:29.689Z,21.4791
2023-03-26T03:23:31.319Z,21.4814
2023-03-26T03:24:32.961Z,21.4875
2023-03-26T03:25:34.636Z,21.4920
2023-03-26T03:26:36.253Z,21.4937
2023-03-26T03:27:37.949Z,21.4938
2023-03-26T03:28:39.566Z,21.4947
2023-03-26T03:29:41.212Z,21.5003
2023-03-26T03:30:42.897Z,21.5081
2023-03-26T03:31:44.520Z,21.5131
2023-03-26T03:32:46.238Z,21.5172
2023-03-26T03:33:47.819Z,21.5129
2023-03-26T03:34:49.438Z,21.5123
2023-03-26T03:35:51.113Z,21.5211
2023-03-26T03:36:52.726Z,21.5136
2023-03-26T03:37:54.415Z,21.5121
2023-03-26T03:38:56.041Z,21.5171
2023-03-26T03:39:57.694Z,21.5194
2023-03-26T03:40:59.324Z,21.5177
2023-03-26T03:42:00.998Z,21.5122
2023-03-26T03:43:02.665Z,21.5134
2023-03-26T03:44:04.300Z,21.5154
2023-03-26T03:45:05.928Z,21.5145
2023-03-26T03:46:07.639Z,21.5166
2023-03-26T03:47:09.211Z,21.5242
2023-03-26T03:48:10.942Z,21.5248
2023-03-26T03:49:12.526Z,21.5189
2023-03-26T03:50:14.200Z,21.5210
2023-03-26T03:51:15.841Z,21.5188
2023-03-26T03:52:17.487Z,21.5165
2023-03-26T03:53:19.144Z,21.5206
2023-03-26T03:54:20.786Z,21.5148
2023-03-26T03:55:22.409Z,21.5122
2023-03-26T03:56:24.101Z,21.5114
2023-03-26T03:57:25.728Z,21.5091
2023-03-26T03:58:27.424Z,21.5116
2023-03-26T03:59:29.004Z,21.5168
2023-03-26T04:00:30.696Z,21.5205
2023-03-26T04:01:32.304Z,21.5250
2023-03-26T04:02:34.076Z,21.5199
2023-03-26T04:03:35.778Z,21.5189
2023-03-26T04:04:37.331Z,21.5140
2023-03-26T04:05:38.920Z,21.5133
2023-03-26T04:06:40.579Z,21.5165
2023-03-26T04:07:42.206Z,21.5101
2023-03-26T04:08:43.995Z,21.5058
2023-03-26T04:09:45.504Z,21.5034
2023-03-26T04:10:47.163Z,21.5041
2023-03-26T04:11:48.802Z,21.5082
2023-03-26T04:12:50.461Z,21.5074
2023-03-26T04:13:52.113Z,21.5055
2023-03-26T04:14:53.756Z,21.5046
2023-03-26T04:15:55.656Z,21.4981
2023-03-26T04:16:57.061Z,21.4927
2023-03-26T04:17:58.760Z,21.4856
2023-03-26T04:19:00.371Z,21.4836
2023-03-26T04:20:01.983Z,21.4830
2023-03-26T04:21:03.638Z,21.4870
2023-03-26T04:22:05.288Z,21.4797
2023-03-26T04:23:06.948Z,21.4831
2023-03-26T04:24:08.597Z,21.4823
2023-03-26T04:25:10.259Z,21.4808
2023-03-26T04:26:11.867Z,21.4803
2023-03-26T04:27:13.527Z,21.4766
2023-03-26T04:28:15.162Z,21.4694
2023-03-26T04:29:16.844Z,21.4438
2023-03-26T04:30:18.456Z,21.4421
2023-03-26T04:31:20.163Z,21.4491
2023-03-26T04:32:21.773Z,21.4473
2023-03-26T04:33:23.438Z,21.4371
2023-03-26T04:34:25.127Z,21.4378
2023-03-26T04:35:26.763Z,21.4398
2023-03-26T04:36:28.390Z,21.4416
2023-03-26T04:37:30.020Z,21.4281
2023-03-26T04:38:31.645Z,21.4277
2023-03-26T04:39:33.352Z,21.4141
2023-03-26T04:40:34.969Z,21.4192
2023-03-26T04:41:36.630Z,21.4318
2023-03-26T04:42:38.253Z,21.4293
2023-03-26T04:43:39.929Z,21.4277
2023-03-26T04:44:41.638Z,21.4304
2023-03-26T04:45:43.209Z,21.4258
2023-03-26T04:46:44.853Z,21.4194
2023-03-26T04:47:46.802Z,21.4209
2023-03-26T04:48:48.141Z,21.4262
2023-03-26T04:49:49.839Z,21.4184
2023-03-26T04:50:51.448Z,21.4147
2023-03-26T04:51:53.095Z,21.3961
2023-03-26T04:52:54.750Z,21.3864
2023-03-26T04:53:56.418Z,21.3870
2023-03-26T04:54:58.060Z,21.3831
2023-03-26T04:55:59.699Z,21.3821
2023-03-26T04:57:01.343Z,21.3761
2023-03-26T04:58:02.986Z,21.3731
2023-03-26T04:59:04.628Z,21.3725
2023-03-26T05:00:06.317Z,21.3653
2023-03-26T05:01:10.318Z,21.3494
2023-03-26T05:02:09.620Z,21.3501
2023-03-26T05:03:11.218Z,21.3536
2023-03-26T05:04:12.893Z,21.3515
2023-03-26T05:05:14.543Z,21.3547
2023-03-26T05:06:16.195Z,21.3516
2023-03-26T05:07:17.819Z,21.3587
2023-03-26T05:08:19.492Z,21.3531
2023-03-26T05:09:21.126Z,21.3539
2023-03-26T05:10:22.869Z,21.3491
2023-03-26T05:11:24.430Z,21.3421
2023-03-26T05:12:26.100Z,21.3431
2023-03-26T05:13:27.713Z,21.3478
2023-03-26T05:14:29.390Z,21.3490
2023-03-26T05:15:31.053Z,21.3457
2023-03-26T05:16:32.706Z,21.3362
2023-03-26T05:17:34.382Z,21.3369
2023-03-26T05:18:36.015Z,21.3299
2023-03-26T05:19:37.624Z,21.3212
2023-03-26T05:20:39.328Z,21.3177
2023-03-26T05:21:40.933Z,21.3246
2023-03-26T05:22:42.592Z,21.3218
2023-03-26T05:23:44.233Z,21.3230
2023-03-26T05:24:45.911Z,21.3219
2023-03-26T05:25:47.567Z,21.3228
2023-03-26T05:26:49.205Z,21.3221
2023-03-26T05:27:50.820Z,21.3221
2023-03-26T05:28:52.733Z,21.3007
2023-03-26T05:29:54.109Z,21.2870
2023-03-26T05:30:55.984Z,21.2744
2023-03-26T05:31:57.432Z,21.2637
2023-03-26T05:32:59.125Z,21.2651
2023-03-26T05:34:00.861Z,21.2725
2023-03-26T05:35:02.352Z,21.2764
2023-03-26T05:36:04.081Z,21.2688
2023-03-26T05:37:05.667Z,21.2648
2023-03-26T05:38:07.317Z,21.2551
2023-03-26T05:39:08.947Z,21.2412
2023-03-26T05:40:10.640Z,21.2491
2023-03-26T05:41:12.285Z,21.2516
2023-03-26T05:42:13.922Z,21.2481
2023-03-26T05:43:15.549Z,21.2502
2023-03-26T05:44:17.234Z,21.2556
2023-03-26T05:45:18.853Z,21.2488
2023-03-26T05:46:20.653Z,21.2090
2023-03-26T05:47:22.143Z,21.2078
2023-03-26T05:48:23.828Z,21.2037
2023-03-26T05:49:25.460Z,21.2069
2023-03-26T05:50:27.129Z,21.2095
2023-03-26T05:51:28.775Z,21.2204
2023-03-26T05:52:30.430Z,21.2133
2023-03-26T05:53:32.066Z,21.2034
2023-03-26T05:54:33.740Z,21.1904
2023-03-26T05:55:35.365Z,21.1831
2023-03-26T05:56:37.175Z,21.1864
2023-03-26T05:57:38.734Z,21.1920
2023-03-26T05:58:40.413Z,21.1772
2023-03-26T05:59:42.029Z,21.1845
2023-03-26T06:00:43.705Z,21.1843
2023-03-26T06:01:45.362Z,21.1885
2023-03-26T06:02:47.091Z,21.1900
2023-03-26T06:03:48.707Z,21.1818
2023-03-26T06:04:50.349Z,21.1828
2023-03-26T06:05:51.933Z,21.1855
2023-03-26T06:06:53.634Z,21.1838
2023-03-26T06:07:55.224Z,21.1800
2023-03-26T06:09:01.910Z,21.1796
2023-03-26T06:09:58.533Z,21.1656
2023-03-26T06:11:00.221Z,21.1723
2023-03-26T06:12:01.874Z,21.1783
2023-03-26T06:13:03.513Z,21.1738
2023-03-26T06:14:05.126Z,21.1727
2023-03-26T06:15:06.807Z,21.1700
2023-03-26T06:16:08.459Z,21.1648
2023-03-26T06:17:10.180Z,21.1485
2023-03-26T06:18:11.791Z,21.1393
2023-03-26T06:19:13.519Z,21.0026
2023-03-26T06:20:15.037Z,20.4144
2023-03-26T06:21:16.704Z,19.8739
2023-03-26T06:22:18.358Z,19.5384
2023-03-26T06:23:19.996Z,19.4410
2023-03-26T06:24:21.630Z,19.5499
2023-03-26T06:25:23.295Z,19.4482
2023-03-26T06:26:24.936Z,19.1282
2023-03-26T06:27:26.625Z,19.0166
2023-03-26T06:28:28.244Z,18.9660
2023-03-26T06:29:29.918Z,18.9031
2023-03-26T06:30:31.551Z,18.9209
2023-03-26T06:31:33.257Z,18.8424
2023-03-26T06:32:34.913Z,18.8411
2023-03-26T06:33:36.517Z,19.0104
2023-03-26T06:34:38.146Z,19.2310
2023-03-26T06:35:39.855Z,19.4309
2023-03-26T06:36:41.465Z,19.5819
2023-03-26T06:37:43.146Z,19.6671
2023-03-26T06:38:44.770Z,19.7432
2023-03-26T06:39:46.429Z,19.8541
2023-03-26T06:40:48.069Z,19.9523
2023-03-26T06:41:49.730Z,20.0441
2023-03-26T06:43:08.643Z,20.1409
2023-03-26T06:43:53.048Z,20.2176
2023-03-26T06:44:54.669Z,20.2912
2023-03-26T06:45:56.357Z,20.3579
2023-03-26T06:46:58.046Z,20.4193
2023-03-26T06:47:59.734Z,20.4771
2023-03-26T06:49:01.283Z,20.5396
2023-03-26T06:50:02.977Z,20.5759
2023-03-26T06:51:04.608Z,20.6400
2023-03-26T06:52:06.274Z,20.7103
2023-03-26T06:53:07.913Z,20.7982
2023-03-26T06:54:09.563Z,20.9316
2023-03-26T06:55:11.220Z,20.9610
2023-03-26T06:56:12.873Z,20.9424
2023-03-26T06:57:14.527Z,20.9412
2023-03-26T06:58:16.210Z,20.9501
2023-03-26T06:59:17.846Z,20.9668
2023-03-26T07:00:19.485Z,20.9576
2023-03-26T07:01:21.165Z,20.9699
2023-03-26T07:02:22.819Z,20.9930
2023-03-26T07:03:24.433Z,21.0040
2023-03-26T07:04:26.110Z,21.0158
2023-03-26T07:05:27.781Z,21.0246
2023-03-26T07:06:29.391Z,21.0341
2023-03-26T07:07:31.047Z,21.0470
2023-03-26T07:08:32.720Z,21.0621
2023-03-26T07:09:34.360Z,21.0837
2023-03-26T07:10:35.987Z,21.1012
2023-03-26T07:11:37.656Z,21.1206
2023-03-26T07:12:39.292Z,21.1374
2023-03-26T07:13:40.978Z,21.1504
2023-03-26T07:14:42.601Z,21.1576
2023-03-26T07:15:44.282Z,21.1661
2023-03-26T07:16:45.903Z,21.1789
2023-03-26T07:17:47.577Z,21.1907
2023-03-26T07:18:49.452Z,21.2141
2023-03-26T07:19:50.874Z,21.2245
2023-03-26T07:20:52.605Z,21.2407
2023-03-26T07:21:54.177Z,21.2462
2023-03-26T07:22:55.801Z,21.2557
2023-03-26T07:23:57.493Z,21.2656
2023-03-26T07:24:59.111Z,21.2743
2023-03-26T07:26:00.786Z,21.2794
2023-03-26T07:27:02.429Z,21.2861
2023-03-26T07:28:04.088Z,21.2898
2023-03-26T07:29:05.728Z,21.2827
2023-03-26T07:30:07.396Z,21.3263
2023-03-26T07:31:09.015Z,21.3622
2023-03-26T07:32:10.680Z,21.3925
2023-03-26T07:33:12.314Z,21.4184
2023-03-26T07:34:14.011Z,21.4229
2023-03-26T07:35:15.629Z,21.4200
2023-03-26T07:36:17.304Z,21.3959
2023-03-26T07:37:18.925Z,21.3854
2023-03-26T07:38:20.592Z,21.3952
2023-03-26T07:39:22.250Z,21.4018
2023-03-26T07:40:23.900Z,21.4062
2023-03-26T07:41:25.537Z,21.4098
2023-03-26T07:42:27.223Z,21.4009
2023-03-26T07:43:28.852Z,21.4010
2023-03-26T07:44:30.525Z,21.4084
2023-03-26T07:45:32.165Z,21.4131
2023-03-26T07:46:33.800Z,21.4132
2023-03-26T07:47:35.478Z,21.4143
2023-03-26T07:48:37.104Z,21.4246
2023-03-26T07:49:38.758Z,21.4173
2023-03-26T07:50:40.410Z,21.3813
2023-03-26T07:51:42.048Z,21.3739
2023-03-26T07:52:43.708Z,21.3764
2023-03-26T07:53:45.341Z,21.3913
2023-03-26T07:54:47.048Z,21.4096
2023-03-26T07:55:48.663Z,21.4334
2023-03-26T07:56:50.386Z,21.4648
2023-03-26T07:57:51.936Z,21.4991
2023-03-26T07:58:53.615Z,21.5281
2023-03-26T07:59:55.266Z,21.5286
2023-03-26T08:00:57.125Z,21.5527
2023-03-26T08:01:58.543Z,21.5653
2023-03-26T08:03:00.286Z,21.5601
2023-03-26T08:04:23.424Z,21.5470
2023-03-26T08:05:03.597Z,21.5598
2023-03-26T08:06:05.134Z,21.5439
2023-03-26T08:07:06.803Z,21.5066
2023-03-26T08:08:08.443Z,21.4766
2023-03-26T08:09:10.109Z,21.4479
2023-03-26T08:10:12.016Z,21.4240
2023-03-26T08:11:13.422Z,21.4268
2023-03-26T08:12:15.039Z,21.4083
2023-03-26T08:13:16.732Z,21.3988
2023-03-26T08:14:18.336Z,21.3896
2023-03-26T08:15:20.037Z,21.3973
2023-03-26T08:16:21.666Z,21.3923
2023-03-26T08:17:23.346Z,21.3563
2023-03-26T08:18:24.942Z,21.3523
2023-03-26T08:19:26.612Z,21.3378
2023-03-26T08:20:28.339Z,21.3021
2023-03-26T08:21:29.918Z,21.2894
2023-03-26T08:22:31.591Z,21.3147
2023-03-26T08:23:33.220Z,21.3232
2023-03-26T08:24:34.893Z,21.3078
2023-03-26T08:25:38.001Z,21.3074
2023-03-26T08:26:38.146Z,21.2806
2023-03-26T08:27:39.809Z,21.2910
2023-03-26T08:28:41.471Z,21.2876
2023-03-26T08:29:43.133Z,21.2597
2023-03-26T08:30:44.812Z,21.2492
2023-03-26T08:31:46.411Z,21.2371
2023-03-26T08:32:48.132Z,21.1951
2023-03-26T08:33:49.731Z,21.1730
2023-03-26T08:34:51.402Z,21.1634
2023-03-26T08:35:53.132Z,21.1499
2023-03-26T08:36:54.721Z,21.1416
2023-03-26T08:37:56.332Z,21.1328
2023-03-26T08:38:58.001Z,21.1192
2023-03-26T08:39:59.643Z,21.1005
2023-03-26T08:41:01.332Z,21.1023
2023-03-26T08:42:02.931Z,21.1012
2023-03-26T08:43:04.602Z,21.0959
2023-03-26T08:44:06.260Z,21.0767
2023-03-26T08:45:07.927Z,21.0650
2023-03-26T08:46:09.597Z,21.0495
2023-03-26T08:47:11.204Z,21.0469
2023-03-26T08:48:12.844Z,21.0289
2023-03-26T08:49:14.501Z,21.0290
2023-03-26T08:50:16.238Z,21.0276
2023-03-26T08:51:17.836Z,21.0339
2023-03-26T08:52:19.446Z,21.0352
2023-03-26T08:53:21.116Z,21.0358
2023-03-26T08:54:22.750Z,21.0370
2023-03-26T08:55:24.423Z,21.0320
2023-03-26T08:56:26.098Z,21.0194
2023-03-26T08:57:27.716Z,21.0019
2023-03-26T08:58:29.352Z,20.9862
2023-03-26T08:59:31.029Z,20.9897
2023-03-26T09:00:32.663Z,20.9917
2023-03-26T09:01:34.393Z,20.9882
2023-03-26T09:02:36.030Z,20.9773
2023-03-26T09:03:37.625Z,20.9575
2023-03-26T09:04:39.272Z,20.9601
2023-03-26T09:05:40.958Z,20.9636
2023-03-26T09:06:42.646Z,20.9520
2023-03-26T09:07:44.293Z,20.9367
2023-03-26T09:08:54.212Z,20.9386
2023-03-26T09:09:47.505Z,20.9420
2023-03-26T09:10:49.154Z,20.9304
2023-03-26T09:11:50.823Z,20.9180
2023-03-26T09:12:52.440Z,20.9071
2023-03-26T09:13:54.132Z,20.8933
2023-03-26T09:14:55.757Z,20.8907
2023-03-26T09:15:57.511Z,20.8933
2023-03-26T09:16:59.080Z,20.8905
2023-03-26T09:18:00.762Z,20.9079
2023-03-26T09:19:02.345Z,20.9107
2023-03-26T09:20:04.026Z,20.9113
2023-03-26T09:21:05.673Z,20.8974
2023-03-26T09:22:07.380Z,20.8851
2023-03-26T09:23:08.960Z,20.8714
2023-03-26T09:24:10.624Z,20.8721
2023-03-26T09:25:12.276Z,20.8664
2023-03-26T09:26:13.929Z,20.8704
2023-03-26T09:27:15.589Z,20.8726
2023-03-26T09:28:17.225Z,20.8702
2023-03-26T09:29:18.855Z,20.8656
2023-03-26T09:30:20.505Z,20.8661
2023-03-26T09:31:22.202Z,20.8578
2023-03-26T09:32:23.942Z,20.8564
2023-03-26T09:33:25.477Z,20.8637
2023-03-26T09:34:27.144Z,20.8628
2023-03-26T09:35:28.764Z,20.8822
2023-03-26T09:36:30.472Z,20.8876
2023-03-26T09:37:32.083Z,20.8806
2023-03-26T09:38:33.741Z,20.8694
2023-03-26T09:39:35.363Z,20.8573
2023-03-26T09:40:37.035Z,20.8643
2023-03-26T09:41:38.658Z,20.8717
2023-03-26T09:42:40.359Z,20.9521
2023-03-26T09:43:41.996Z,20.8243
2023-03-26T09:44:43.628Z,20.1348
2023-03-26T09:45:45.275Z,20.2088
2023-03-26T09:46:46.936Z,20.3168
2023-03-26T09:47:48.648Z,20.3853
2023-03-26T09:48:50.237Z,20.4489
2023-03-26T09:49:51.865Z,20.4915
2023-03-26T09:50:53.719Z,20.5241
2023-03-26T09:51:55.146Z,20.5514
2023-03-26T09:52:56.845Z,20.5692
2023-03-26T09:53:58.447Z,20.5782
2023-03-26T09:55:00.162Z,20.5822
2023-03-26T09:56:01.772Z,20.5946
2023-03-26T09:57:03.465Z,20.6079
2023-03-26T09:58:05.134Z,20.6189
2023-03-26T09:59:06.854Z,20.6246
2023-03-26T10:00:08.423Z,20.6285
2023-03-26T10:01:10.144Z,20.6275
2023-03-26T10:02:11.717Z,20.6267
2023-03-26T10:03:13.465Z,20.5462
2023-03-26T10:04:15.024Z,20.1084
2023-03-26T10:05:16.690Z,19.6426
2023-03-26T10:06:18.313Z,19.4716
2023-03-26T10:07:19.984Z,19.4291
2023-03-26T10:08:21.641Z,19.4457
2023-03-26T10:09:23.290Z,19.5448
2023-03-26T10:10:24.906Z,19.6821
2023-03-26T10:11:26.588Z,19.7586
2023-03-26T10:12:28.222Z,19.8192
2023-03-26T10:13:29.928Z,19.8791
2023-03-26T10:14:31.532Z,19.9211
2023-03-26T10:15:33.198Z,19.9649
2023-03-26T10:16:34.880Z,20.0030
2023-03-26T10:17:37.179Z,20.0425
2023-03-26T10:18:38.166Z,20.0735
2023-03-26T10:19:39.808Z,20.1086
2023-03-26T10:20:41.434Z,20.1394
2023-03-26T10:21:43.096Z,20.1583
2023-03-26T10:22:44.742Z,20.1812
2023-03-26T10:23:46.425Z,20.2087
2023-03-26T10:24:48.044Z,20.2305
2023-03-26T10:25:49.745Z,20.2477
2023-03-26T10:27:08.589Z,20.2546
2023-03-26T10:27:53.014Z,20.2710
2023-03-26T10:28:54.677Z,20.2842
2023-03-26T10:29:56.325Z,20.2957
2023-03-26T10:30:58.118Z,20.3152
2023-03-26T10:31:59.616Z,20.3310
2023-03-26T10:33:01.324Z,20.3422
2023-03-26T10:34:02.959Z,20.3524
2023-03-26T10:35:04.555Z,20.3660
2023-03-26T10:36:06.251Z,20.3740
2023-03-26T10:37:07.851Z,20.3807
2023-03-26T10:38:09.527Z,20.3927
2023-03-26T10:39:11.183Z,20.4090
2023-03-26T10:40:12.830Z,20.4224
2023-03-26T10:41:14.491Z,20.4288
2023-03-26T10:42:16.123Z,20.4304
2023-03-26T10:43:17.763Z,20.4374
2023-03-26T10:44:19.508Z,20.4448
2023-03-26T10:45:21.096Z,20.4548
2023-03-26T10:46:22.772Z,20.4608
2023-03-26T10:47:24.432Z,20.4670
2023-03-26T10:48:26.054Z,20.4751
2023-03-26T10:49:27.750Z,20.4823
2023-03-26T10:50:29.362Z,20.4883
2023-03-26T10:51:30.972Z,20.4914
2023-03-26T10:52:32.670Z,20.4929
2023-03-26T10:53:34.295Z,20.5020
2023-03-26T10:54:35.999Z,20.5035
2023-03-26T10:55:37.596Z,20.5101
2023-03-26T10:56:39.290Z,20.5147
2023-03-26T10:57:40.896Z,20.5183
2023-03-26T10:58:48.590Z,20.5165
2023-03-26T10:59:44.247Z,20.5169
2023-03-26T11:00:45.892Z,20.5216
2023-03-26T11:01:47.524Z,20.5277
2023-03-26T11:02:49.225Z,20.5282
2023-03-26T11:03:50.827Z,20.5327
2023-03-26T11:04:52.517Z,20.5452
2023-03-26T11:05:54.191Z,20.5462
2023-03-26T11:06:55.800Z,20.5435
2023-03-26T11:07:57.430Z,20.5382
2023-03-26T11:08:59.136Z,20.5414
2023-03-26T11:10:00.746Z,20.5527
2023-03-26T11:11:02.395Z,20.5604
2023-03-26T11:12:26.223Z,20.5864
2023-03-26T11:13:05.691Z,20.6009
2023-03-26T11:14:07.339Z,20.6169
2023-03-26T11:15:09.106Z,20.6317
2023-03-26T11:16:10.642Z,20.6545
2023-03-26T11:17:14.915Z,20.6843
2023-03-26T11:18:13.963Z,20.7114
2023-03-26T11:19:15.591Z,20.7218
2023-03-26T11:20:17.292Z,20.7232
2023-03-26T11:21:20.635Z,20.7202
2023-03-26T11:22:20.527Z,20.7064
2023-03-26T11:23:22.211Z,20.6984
2023-03-26T11:24:23.812Z,20.7005
2023-03-26T11:25:25.532Z,20.6945
2023-03-26T11:26:27.137Z,20.6815
2023-03-26T11:27:28.792Z,20.6892
2023-03-26T11:28:30.446Z,20.7121
2023-03-26T11:29:33.494Z,20.7279
2023-03-26T11:30:33.767Z,20.7317
2023-03-26T11:31:35.433Z,20.7297
2023-03-26T11:32:37.070Z,20.7273
2023-03-26T11:33:38.689Z,20.7314
2023-03-26T11:34:40.347Z,20.7344
2023-03-26T11:35:42.013Z,20.7245
2023-03-26T11:36:43.630Z,20.7185
2023-03-26T11:37:45.308Z,20.7213
2023-03-26T11:38:46.965Z,20.7225
2023-03-26T11:39:48.584Z,20.7244
2023-03-26T11:40:50.249Z,20.7326
2023-03-26T11:41:51.901Z,20.7489
2023-03-26T11:42:53.540Z,20.7499
2023-03-26T11:43:55.217Z,20.7463
2023-03-26T11:44:56.861Z,20.7494
2023-03-26T11:45:58.550Z,20.7496
2023-03-26T11:47:00.126Z,20.7456
2023-03-26T11:48:01.854Z,20.7398
2023-03-26T11:49:03.407Z,20.7414
2023-03-26T11:50:05.143Z,20.7478
2023-03-26T11:51:06.783Z,20.7560
2023-03-26T11:52:08.393Z,20.7616
2023-03-26T11:53:10.039Z,20.7634
2023-03-26T11:54:11.714Z,20.7583
2023-03-26T11:55:13.343Z,20.7536
2023-03-26T11:56:15.174Z,20.7500
2023-03-26T11:57:16.694Z,20.7490
2023-03-26T11:58:18.307Z,20.7489
2023-03-26T11:59:21.650Z,20.7494
2023-03-26T12:00:21.607Z,20.7487
2023-03-26T12:01:23.250Z,20.7490
2023-03-26T12:02:25.076Z,20.7476
2023-03-26T12:03:26.551Z,20.7434
2023-03-26T12:04:30.604Z,20.7435
2023-03-26T12:05:29.840Z,20.7434
2023-03-26T12:06:31.536Z,20.7421
2023-03-26T12:07:33.146Z,20.7440
2023-03-26T12:08:34.814Z,20.7435
2023-03-26T12:09:36.444Z,20.7403
2023-03-26T12:10:38.543Z,20.7313
2023-03-26T12:11:39.771Z,20.7251
2023-03-26T12:12:41.424Z,20.7261
2023-03-26T12:13:43.052Z,20.7249
2023-03-26T12:14:44.703Z,20.7247
2023-03-26T12:15:46.350Z,20.7266
2023-03-26T12:16:48.060Z,20.7281
2023-03-26T12:17:49.651Z,20.7274
2023-03-26T12:18:51.307Z,20.7235
2023-03-26T12:19:52.947Z,20.7150
2023-03-26T12:20:54.734Z,20.7166
2023-03-26T12:21:56.265Z,20.7170
2023-03-26T12:22:57.913Z,20.7164
2023-03-26T12:23:59.548Z,20.7179
2023-03-26T12:25:01.200Z,20.7160